createdAt,value
2018-07-17T00:01:50.264Z,99.90
2018-07-17T00:04:24.647Z,99.90
2018-07-17T00:06:58.888Z,99.90
2018-07-17T00:09:33.325Z,99.90
2018-07-17T00:12:08.052Z,99.90
2018-07-17T00:14:42.387Z,99.90
2018-07-17T00:17:16.700Z,99.90
2018-07-17T00:19:51.041Z,99.90
2018-07-17T00:22:25.459Z,99.90
2018-07-17T00:24:59.705Z,99.90
2018-07-17T00:27:34.003Z,99.90
2018-07-17T00:30:08.363Z,99.90
2018-07-17T00:32:42.676Z,99.90
2018-07-17T00:35:17.131Z,99.90
2018-07-17T00:37:51.430Z,99.90
2018-07-17T00:40:25.975Z,99.90
2018-07-17T00:43:00.221Z,99.90
2018-07-17T00:45:34.532Z,99.90
2018-07-17T00:48:08.959Z,99.90
2018-07-17T00:50:43.263Z,99.90
2018-07-17T00:53:17.567Z,99.90
2018-07-17T00:55:52.667Z,99.90
2018-07-17T00:58:27.097Z,99.90
2018-07-17T01:01:00.789Z,99.90
2018-07-17T01:03:40.607Z,99.90
2018-07-17T01:06:20.723Z,99.90
2018-07-17T01:09:00.433Z,99.90
2018-07-17T01:11:40.492Z,99.90
2018-07-17T01:14:26.714Z,99.90
2018-07-17T01:17:01.045Z,99.90
2018-07-17T01:19:35.622Z,99.90
2018-07-17T01:22:09.951Z,99.90
2018-07-17T01:24:44.320Z,99.90
2018-07-17T01:27:18.655Z,99.90
2018-07-17T01:29:53.272Z,99.90
2018-07-17T01:32:27.717Z,99.90
2018-07-17T01:35:02.129Z,99.90
2018-07-17T01:37:36.572Z,99.90
2018-07-17T01:40:11.051Z,99.90
2018-07-17T01:42:45.344Z,99.90
2018-07-17T01:45:19.678Z,99.90
2018-07-17T01:47:54.140Z,99.90
2018-07-17T01:50:28.580Z,99.90
2018-07-17T01:53:02.984Z,99.90
2018-07-17T01:55:37.299Z,99.90
2018-07-17T01:58:12.088Z,99.90
2018-07-17T02:00:46.382Z,99.90
2018-07-17T02:03:20.707Z,99.90
2018-07-17T02:05:54.977Z,99.90
2018-07-17T02:08:29.375Z,99.90
2018-07-17T02:11:03.798Z,99.90
2018-07-17T02:13:38.181Z,99.90
2018-07-17T02:16:12.458Z,99.90
2018-07-17T02:18:46.729Z,99.90
2018-07-17T02:21:21.140Z,99.90
2018-07-17T02:23:55.544Z,99.90
2018-07-17T02:26:29.865Z,99.90
2018-07-17T02:29:04.231Z,99.90
2018-07-17T02:31:38.698Z,99.90
2018-07-17T02:34:13.028Z,99.90
2018-07-17T02:36:47.372Z,99.90
2018-07-17T02:39:21.804Z,99.90
2018-07-17T02:41:56.099Z,99.90
2018-07-17T02:44:30.486Z,99.90
2018-07-17T02:47:04.938Z,99.90
2018-07-17T02:49:39.224Z,99.90
2018-07-17T02:54:47.518Z,99.90
2018-07-17T02:57:21.904Z,99.90
2018-07-17T02:59:56.278Z,99.90
2018-07-17T03:02:30.698Z,99.90
2018-07-17T03:05:05.043Z,99.90
2018-07-17T03:07:39.345Z,99.90
2018-07-17T03:10:13.656Z,99.90
2018-07-17T03:12:48.065Z,99.90
2018-07-17T03:15:22.405Z,99.90
2018-07-17T03:17:56.690Z,99.90
2018-07-17T03:20:31.133Z,99.90
2018-07-17T03:23:05.570Z,99.90
2018-07-17T03:25:40.069Z,99.90
2018-07-17T03:28:14.479Z,99.90
2018-07-17T03:30:48.698Z,99.90
2018-07-17T03:33:23.102Z,99.90
2018-07-17T03:35:57.439Z,99.90
2018-07-17T03:38:31.931Z,99.90
2018-07-17T03:41:06.237Z,99.90
2018-07-17T03:43:40.710Z,99.90
2018-07-17T03:46:15.223Z,99.90
2018-07-17T03:48:49.547Z,99.90
2018-07-17T03:51:23.943Z,99.90
2018-07-17T03:53:58.396Z,99.90
2018-07-17T03:56:32.650Z,99.90
2018-07-17T03:59:06.997Z,99.90
2018-07-17T04:01:41.459Z,99.90
2018-07-17T04:04:15.676Z,99.90
2018-07-17T04:06:49.944Z,99.90
2018-07-17T04:09:24.330Z,99.90
2018-07-17T04:11:58.823Z,99.90
2018-07-17T04:14:33.193Z,99.90
2018-07-17T04:17:07.628Z,99.90
2018-07-17T04:19:42.044Z,99.90
2018-07-17T04:22:16.384Z,99.90
2018-07-17T04:24:50.627Z,99.90
2018-07-17T04:27:25.061Z,99.90
2018-07-17T04:29:59.331Z,99.90
2018-07-17T04:32:33.770Z,99.90
2018-07-17T04:35:08.228Z,99.90
2018-07-17T04:37:42.551Z,99.90
2018-07-17T04:40:16.899Z,99.90
2018-07-17T04:42:51.093Z,99.90
2018-07-17T04:45:25.422Z,99.90
2018-07-17T04:48:05.351Z,99.90
2018-07-17T04:50:39.608Z,99.90
2018-07-17T04:53:14.065Z,99.90
2018-07-17T04:55:48.390Z,99.90
2018-07-17T04:58:22.755Z,99.90
2018-07-17T05:00:57.183Z,99.90
2018-07-17T05:03:31.526Z,99.90
2018-07-17T05:06:05.794Z,99.90
2018-07-17T05:08:40.302Z,99.90
2018-07-17T05:11:14.723Z,99.90
2018-07-17T05:13:49.188Z,99.90
2018-07-17T05:16:23.501Z,99.90
2018-07-17T05:18:57.744Z,99.90
2018-07-17T05:21:32.171Z,99.90
2018-07-17T05:24:06.626Z,99.90
2018-07-17T05:26:40.981Z,99.90
2018-07-17T05:29:15.296Z,99.90
2018-07-17T05:31:49.856Z,99.90
2018-07-17T05:34:24.206Z,99.90
2018-07-17T05:36:58.684Z,99.90
2018-07-17T05:39:32.988Z,99.90
2018-07-17T05:42:07.430Z,99.90
2018-07-17T05:44:42.195Z,99.90
2018-07-17T05:47:16.670Z,99.90
2018-07-17T05:49:50.971Z,99.90
2018-07-17T05:52:25.547Z,99.90
2018-07-17T05:54:59.940Z,99.90
2018-07-17T05:57:34.364Z,99.90
2018-07-17T06:00:09.068Z,99.90
2018-07-17T06:02:43.495Z,99.90
2018-07-17T06:05:18.051Z,99.90
2018-07-17T06:07:52.497Z,99.90
2018-07-17T06:10:26.823Z,99.90
2018-07-17T06:13:01.138Z,99.90
2018-07-17T06:15:35.701Z,99.90
2018-07-17T06:18:10.011Z,99.90
2018-07-17T06:20:44.343Z,99.90
2018-07-17T06:23:18.642Z,99.90
2018-07-17T06:28:27.063Z,99.90
2018-07-17T06:31:01.405Z,99.90
2018-07-17T06:33:35.747Z,99.90
2018-07-17T06:36:10.170Z,99.90
2018-07-17T06:38:44.518Z,99.90
2018-07-17T06:41:18.903Z,99.90
2018-07-17T06:43:53.184Z,99.90
2018-07-17T06:46:27.587Z,99.90
2018-07-17T06:49:01.960Z,99.90
2018-07-17T06:51:36.219Z,99.90
2018-07-17T06:54:10.654Z,99.90
2018-07-17T06:56:45.095Z,99.90
2018-07-17T06:59:19.426Z,99.90
2018-07-17T07:01:53.707Z,99.90
2018-07-17T07:04:28.073Z,99.90
2018-07-17T07:07:02.523Z,99.90
2018-07-17T07:09:36.837Z,99.90
2018-07-17T07:12:11.597Z,99.90
2018-07-17T07:14:45.990Z,99.90
2018-07-17T07:17:20.370Z,99.90
2018-07-17T07:19:54.833Z,99.90
2018-07-17T07:22:29.118Z,99.90
2018-07-17T07:25:03.466Z,99.90
2018-07-17T07:27:37.784Z,99.90
2018-07-17T07:30:12.040Z,99.90
2018-07-17T07:32:46.262Z,99.90
2018-07-17T07:35:20.535Z,99.90
2018-07-17T07:37:54.954Z,99.90
2018-07-17T07:40:29.269Z,99.90
2018-07-17T07:43:03.601Z,99.90
2018-07-17T07:45:37.914Z,99.90
2018-07-17T07:48:12.350Z,99.90
2018-07-17T07:50:46.689Z,99.90
2018-07-17T07:53:21.956Z,99.90
2018-07-17T07:55:56.346Z,99.90
2018-07-17T07:58:30.709Z,99.90
2018-07-17T08:01:04.980Z,99.90
2018-07-17T08:03:39.343Z,99.90
2018-07-17T08:06:13.777Z,99.90
2018-07-17T08:08:48.059Z,99.90
2018-07-17T08:11:22.416Z,99.90
2018-07-17T08:13:56.605Z,99.90
2018-07-17T08:16:31.074Z,99.90
2018-07-17T08:19:05.470Z,99.90
2018-07-17T08:21:39.829Z,99.70
2018-07-17T08:24:14.146Z,99.90
2018-07-17T08:26:48.700Z,98.90
2018-07-17T08:29:23.127Z,99.30
2018-07-17T08:31:57.611Z,99.70
2018-07-17T08:34:32.310Z,99.90
2018-07-17T08:37:06.670Z,99.30
2018-07-17T08:39:40.875Z,98.90
2018-07-17T08:42:15.302Z,99.40
2018-07-17T08:44:49.701Z,97.60
2018-07-17T08:47:24.181Z,97.40
2018-07-17T08:49:58.612Z,97.40
2018-07-17T08:52:32.990Z,98.90
2018-07-17T08:55:07.388Z,98.40
2018-07-17T08:57:41.766Z,98.60
2018-07-17T09:00:16.011Z,96.50
2018-07-17T09:02:50.244Z,96.40
2018-07-17T09:05:24.540Z,96.60
2018-07-17T09:07:58.749Z,97.20
2018-07-17T09:10:33.076Z,97.30
2018-07-17T09:13:07.491Z,97.40
2018-07-17T09:15:41.817Z,96.60
2018-07-17T09:18:16.144Z,95.30
2018-07-17T09:20:50.580Z,96.90
2018-07-17T09:23:24.949Z,93.80
2018-07-17T09:25:59.250Z,94.80
2018-07-17T09:28:33.491Z,94.90
2018-07-17T09:31:07.884Z,92.70
2018-07-17T09:33:42.329Z,92.20
2018-07-17T09:36:16.704Z,93.50
2018-07-17T09:38:50.971Z,91.90
2018-07-17T09:41:25.227Z,91.10
2018-07-17T09:43:59.533Z,90.60
2018-07-17T09:46:33.837Z,90.90
2018-07-17T09:49:08.229Z,90.90
2018-07-17T09:51:42.622Z,91.60
2018-07-17T09:54:17.010Z,91.60
2018-07-17T09:56:51.420Z,90.90
2018-07-17T09:59:25.687Z,91.00
2018-07-17T10:02:05.544Z,91.30
2018-07-17T10:04:40.065Z,87.50
2018-07-17T10:07:14.547Z,81.70
2018-07-17T10:09:48.952Z,81.30
2018-07-17T10:12:24.155Z,82.20
2018-07-17T10:14:58.571Z,81.50
2018-07-17T10:17:32.970Z,83.00
2018-07-17T10:20:07.257Z,84.30
2018-07-17T10:22:42.695Z,83.50
2018-07-17T10:25:17.117Z,83.20
2018-07-17T10:27:51.492Z,83.40
2018-07-17T10:30:25.900Z,82.60
2018-07-17T10:33:00.256Z,82.80
2018-07-17T10:35:35.171Z,81.10
2018-07-17T10:40:43.752Z,82.20
2018-07-17T10:43:18.146Z,80.90
2018-07-17T10:45:52.445Z,81.40
2018-07-17T10:48:26.827Z,81.10
2018-07-17T10:51:01.126Z,77.90
2018-07-17T10:53:35.655Z,81.00
2018-07-17T10:56:10.151Z,94.90
2018-07-17T10:58:44.565Z,99.90
2018-07-17T11:01:18.871Z,99.90
2018-07-17T11:03:53.227Z,99.90
2018-07-17T11:06:27.636Z,99.90
2018-07-17T11:09:02.005Z,99.90
2018-07-17T11:11:36.383Z,99.90
2018-07-17T11:14:10.667Z,99.90
2018-07-17T11:16:44.986Z,99.90
2018-07-17T11:19:19.577Z,99.90
2018-07-17T11:21:54.125Z,99.90
2018-07-17T11:24:28.449Z,99.90
2018-07-17T11:27:02.804Z,99.90
2018-07-17T11:29:37.305Z,99.90
2018-07-17T11:32:11.650Z,99.90
2018-07-17T11:34:45.946Z,99.90
2018-07-17T11:37:20.274Z,99.90
2018-07-17T11:39:54.596Z,99.90
2018-07-17T11:42:29.108Z,99.90
2018-07-17T11:45:03.570Z,99.90
2018-07-17T11:47:37.948Z,99.90
2018-07-17T11:50:12.283Z,99.90
2018-07-17T11:52:46.811Z,99.90
2018-07-17T11:55:21.329Z,99.90
2018-07-17T11:57:55.697Z,99.90
2018-07-17T12:00:30.190Z,99.90
2018-07-17T12:03:04.607Z,99.90
2018-07-17T12:05:38.996Z,99.90
2018-07-17T12:08:13.266Z,99.90
2018-07-17T12:10:47.511Z,99.90
2018-07-17T12:13:21.774Z,99.90
2018-07-17T12:15:56.074Z,99.90
2018-07-17T12:18:30.514Z,99.90
2018-07-17T12:21:04.725Z,99.90
2018-07-17T12:23:39.010Z,99.90
2018-07-17T12:26:13.358Z,99.90
2018-07-17T12:28:47.669Z,99.90
2018-07-17T12:31:21.987Z,99.90
2018-07-17T12:33:56.420Z,99.90
2018-07-17T12:36:30.821Z,99.90
2018-07-17T12:39:07.789Z,98.00
2018-07-17T12:41:42.108Z,97.00
2018-07-17T12:44:16.374Z,97.30
2018-07-17T12:46:50.693Z,98.10
2018-07-17T12:49:25.059Z,97.90
2018-07-17T12:51:59.417Z,97.90
2018-07-17T12:54:33.849Z,99.50
2018-07-17T12:57:08.124Z,99.10
2018-07-17T12:59:42.422Z,99.10
2018-07-17T13:02:16.776Z,99.90
2018-07-17T13:04:51.187Z,99.40
2018-07-17T13:07:25.496Z,99.90
2018-07-17T13:09:59.899Z,99.70
2018-07-17T13:12:34.191Z,99.90
2018-07-17T13:15:08.568Z,99.90
2018-07-17T13:17:42.933Z,99.90
2018-07-17T13:20:17.321Z,99.90
2018-07-17T13:22:51.777Z,99.90
2018-07-17T13:25:26.121Z,99.90
2018-07-17T13:28:00.508Z,99.90
2018-07-17T13:30:34.864Z,99.90
2018-07-17T13:33:09.245Z,99.90
2018-07-17T13:35:43.585Z,99.90
2018-07-17T13:38:17.996Z,99.90
2018-07-17T13:40:52.292Z,99.90
2018-07-17T13:43:26.789Z,99.90
2018-07-17T13:46:01.276Z,99.90
2018-07-17T13:48:35.790Z,99.90
2018-07-17T13:51:10.151Z,99.90
2018-07-17T13:53:45.027Z,99.90
2018-07-17T13:56:19.565Z,99.90
2018-07-17T13:58:53.859Z,99.90
2018-07-17T14:01:28.208Z,99.90
2018-07-17T14:04:02.650Z,99.90
2018-07-17T14:06:37.185Z,99.90
2018-07-17T14:09:11.922Z,99.90
2018-07-17T14:11:46.419Z,99.90
2018-07-17T14:14:20.726Z,99.90
2018-07-17T14:16:55.056Z,99.90
2018-07-17T14:19:29.395Z,99.90
2018-07-17T14:22:03.950Z,99.90
2018-07-17T14:24:38.374Z,99.90
2018-07-17T14:27:12.871Z,99.90
2018-07-17T14:29:47.376Z,99.90
2018-07-17T14:32:21.839Z,99.90
2018-07-17T14:34:56.243Z,99.90
2018-07-17T14:37:30.689Z,99.90
2018-07-17T14:40:05.338Z,99.90
2018-07-17T14:42:39.702Z,99.90
2018-07-17T14:45:13.975Z,99.90
2018-07-17T14:47:48.433Z,99.90
2018-07-17T14:50:22.956Z,99.90
2018-07-17T14:52:57.326Z,99.90
2018-07-17T14:55:31.665Z,99.90
2018-07-17T14:58:06.262Z,99.90
2018-07-17T15:00:40.730Z,99.90
2018-07-17T15:03:15.188Z,99.90
2018-07-17T15:05:49.495Z,99.90
2018-07-17T15:08:23.853Z,99.90
2018-07-17T15:10:58.249Z,99.90
2018-07-17T15:13:32.533Z,99.90
2018-07-17T15:16:07.042Z,99.90
2018-07-17T15:18:41.532Z,99.90
2018-07-17T15:21:15.992Z,99.90
2018-07-17T15:23:50.336Z,99.90
2018-07-17T15:26:24.773Z,99.90
2018-07-17T15:28:59.190Z,99.90
2018-07-17T15:31:33.507Z,99.90
2018-07-17T15:34:07.943Z,99.90
2018-07-17T15:36:42.223Z,99.90
2018-07-17T15:39:16.683Z,99.90
2018-07-17T15:41:51.169Z,99.90
2018-07-17T15:44:25.491Z,99.90
2018-07-17T15:46:59.772Z,99.90
2018-07-17T15:49:34.128Z,99.90
2018-07-17T15:52:08.514Z,99.90
2018-07-17T15:54:42.834Z,99.90
2018-07-17T15:57:17.220Z,99.90
2018-07-17T15:59:51.596Z,99.90
2018-07-17T16:02:25.949Z,99.90
2018-07-17T16:05:00.482Z,99.90
2018-07-17T16:07:34.836Z,99.90
2018-07-17T16:10:09.178Z,99.90
2018-07-17T16:12:44.557Z,99.90
2018-07-17T16:15:18.853Z,99.90
2018-07-17T16:17:53.369Z,99.90
2018-07-17T16:20:27.710Z,99.90
2018-07-17T16:23:02.076Z,99.90
2018-07-17T16:25:36.427Z,99.90
2018-07-17T16:28:10.862Z,99.60
2018-07-17T16:30:45.176Z,98.40
2018-07-17T16:33:19.606Z,95.20
2018-07-17T16:35:54.023Z,95.90
2018-07-17T16:38:28.399Z,90.70
2018-07-17T16:41:02.815Z,90.60
2018-07-17T16:43:37.253Z,89.50
2018-07-17T16:46:11.572Z,81.30
2018-07-17T16:48:45.936Z,80.60
2018-07-17T16:51:20.321Z,82.70
2018-07-17T16:53:54.996Z,78.10
2018-07-17T16:56:29.408Z,83.40
2018-07-17T16:59:03.826Z,79.20
2018-07-17T17:01:38.320Z,82.90
2018-07-17T17:04:12.850Z,79.30
2018-07-17T17:09:21.661Z,89.70
2018-07-17T17:11:55.996Z,88.70
2018-07-17T17:14:30.298Z,87.20
2018-07-17T17:17:04.720Z,86.40
2018-07-17T17:19:39.297Z,85.50
2018-07-17T17:22:14.027Z,83.00
2018-07-17T17:24:48.438Z,79.40
2018-07-17T17:27:23.326Z,84.70
2018-07-17T17:29:57.771Z,82.10
2018-07-17T17:32:32.127Z,81.50
2018-07-17T17:35:06.730Z,77.10
2018-07-17T17:37:41.326Z,80.80
2018-07-17T17:40:15.718Z,83.30
2018-07-17T17:42:50.057Z,82.00
2018-07-17T17:45:24.488Z,80.40
2018-07-17T17:47:58.754Z,85.10
2018-07-17T17:50:33.217Z,85.70
2018-07-17T17:53:07.851Z,87.30
2018-07-17T17:55:42.221Z,88.10
2018-07-17T17:58:16.574Z,87.90
2018-07-17T18:00:51.102Z,90.10
2018-07-17T18:03:25.463Z,90.80
2018-07-17T18:05:59.901Z,91.80
2018-07-17T18:08:34.324Z,92.50
2018-07-17T18:11:08.670Z,93.10
2018-07-17T18:13:42.956Z,93.20
2018-07-17T18:16:17.357Z,93.80
2018-07-17T18:18:51.818Z,94.60
2018-07-17T18:21:26.181Z,94.40
2018-07-17T18:24:00.579Z,95.90
2018-07-17T18:26:34.947Z,94.70
2018-07-17T18:29:09.285Z,93.70
2018-07-17T18:31:43.612Z,92.80
2018-07-17T18:34:18.240Z,92.50
2018-07-17T18:36:52.484Z,92.00
2018-07-17T18:39:26.822Z,91.90
2018-07-17T18:42:01.204Z,92.40
2018-07-17T18:44:35.580Z,93.30
2018-07-17T18:47:10.396Z,94.00
2018-07-17T18:49:44.836Z,94.30
2018-07-17T18:52:19.635Z,94.50
2018-07-17T18:54:54.084Z,94.70
2018-07-17T18:57:28.394Z,94.30
2018-07-17T19:00:02.747Z,95.30
2018-07-17T19:02:37.012Z,94.90
2018-07-17T19:05:11.302Z,96.80
2018-07-17T19:07:45.582Z,99.90
2018-07-17T19:10:19.953Z,99.90
2018-07-17T19:12:54.256Z,99.90
2018-07-17T19:15:28.625Z,99.90
2018-07-17T19:18:02.838Z,99.90
2018-07-17T19:20:37.348Z,99.90
2018-07-17T19:23:11.620Z,99.90
2018-07-17T19:25:45.964Z,99.90
2018-07-17T19:28:20.378Z,99.90
2018-07-17T19:30:54.853Z,99.90
2018-07-17T19:33:29.300Z,99.90
2018-07-17T19:36:03.671Z,99.90
2018-07-17T19:38:38.061Z,99.90
2018-07-17T19:41:12.455Z,99.90
2018-07-17T19:43:46.786Z,99.90
2018-07-17T19:46:21.142Z,99.90
2018-07-17T19:48:55.425Z,99.90
2018-07-17T19:51:29.641Z,99.90
2018-07-17T19:54:03.918Z,99.90
2018-07-17T19:56:38.261Z,99.90
2018-07-17T19:59:12.653Z,99.90
2018-07-17T20:01:47.075Z,99.90
2018-07-17T20:04:21.502Z,99.90
2018-07-17T20:06:55.954Z,99.90
2018-07-17T20:09:30.262Z,99.90
2018-07-17T20:12:04.723Z,99.90
2018-07-17T20:14:39.007Z,99.90
2018-07-17T20:17:13.520Z,99.90
2018-07-17T20:19:47.914Z,99.90
2018-07-17T20:22:22.319Z,99.90
2018-07-17T20:24:56.601Z,99.90
2018-07-17T20:27:31.008Z,99.90
2018-07-17T20:30:05.414Z,99.90
2018-07-17T20:32:39.636Z,99.90
2018-07-17T20:35:14.018Z,99.90
2018-07-17T20:37:48.275Z,99.90
2018-07-17T20:40:24.285Z,99.90
2018-07-17T20:42:58.658Z,99.90
2018-07-17T20:45:35.911Z,99.90
2018-07-17T20:48:10.340Z,99.90
2018-07-17T20:50:46.728Z,99.90
2018-07-17T20:53:21.440Z,99.90
2018-07-17T20:56:00.454Z,99.90
2018-07-17T20:58:34.939Z,99.90
2018-07-17T21:01:09.211Z,99.90
2018-07-17T21:03:43.685Z,99.90
2018-07-17T21:06:18.073Z,99.90
2018-07-17T21:08:53.865Z,99.90
2018-07-17T21:11:29.367Z,99.90
2018-07-17T21:14:03.619Z,99.90
2018-07-17T21:16:38.717Z,99.90
2018-07-17T21:19:13.742Z,99.90
2018-07-17T21:21:48.312Z,99.90
2018-07-17T21:24:22.852Z,99.90
2018-07-17T21:26:57.539Z,99.90
2018-07-17T21:29:33.812Z,99.90
2018-07-17T21:32:08.229Z,99.90
2018-07-17T21:34:42.556Z,99.90
2018-07-17T21:37:17.020Z,99.90
2018-07-17T21:39:51.484Z,99.90
2018-07-17T21:42:26.242Z,99.90
2018-07-17T21:45:00.698Z,99.90
2018-07-17T21:47:34.955Z,99.90
2018-07-17T21:50:09.230Z,99.90
2018-07-17T21:52:43.523Z,99.90
2018-07-17T21:55:17.905Z,99.90
2018-07-17T21:57:52.312Z,99.90
2018-07-17T22:00:27.998Z,99.90
2018-07-17T22:03:02.472Z,99.90
2018-07-17T22:05:36.896Z,99.90
2018-07-17T22:08:11.340Z,99.90
2018-07-17T22:10:45.930Z,99.90
2018-07-17T22:13:20.513Z,99.90
2018-07-17T22:15:55.032Z,99.90
2018-07-17T22:18:29.485Z,99.90
2018-07-17T22:21:03.867Z,99.90
2018-07-17T22:23:38.188Z,99.90
2018-07-17T22:26:12.553Z,99.90
2018-07-17T22:28:46.990Z,99.90
2018-07-17T22:31:21.314Z,99.90
2018-07-17T22:33:55.744Z,99.90
2018-07-17T22:36:30.202Z,99.90
2018-07-17T22:39:06.300Z,99.90
2018-07-17T22:41:40.705Z,99.90
2018-07-17T22:44:15.112Z,99.90
2018-07-17T22:46:49.614Z,99.90
2018-07-17T22:49:24.101Z,99.90
2018-07-17T22:51:58.421Z,99.90
2018-07-17T22:54:32.717Z,99.90
2018-07-17T22:57:07.172Z,99.90
2018-07-17T22:59:41.531Z,99.90
2018-07-17T23:02:16.174Z,99.90
2018-07-17T23:04:50.671Z,99.90
2018-07-17T23:07:25.131Z,99.90
2018-07-17T23:09:59.566Z,99.90
2018-07-17T23:12:34.007Z,99.90
2018-07-17T23:15:08.380Z,99.90
2018-07-17T23:17:42.801Z,99.90
2018-07-17T23:20:17.244Z,99.90
2018-07-17T23:22:53.634Z,99.90
2018-07-17T23:25:30.303Z,99.90
2018-07-17T23:28:04.599Z,99.90
2018-07-17T23:30:39.002Z,99.90
2018-07-17T23:33:13.311Z,99.90
2018-07-17T23:35:47.600Z,99.90
2018-07-17T23:40:56.357Z,99.90
2018-07-17T23:43:30.682Z,99.90
2018-07-17T23:46:05.163Z,99.90
2018-07-17T23:48:39.670Z,99.90
2018-07-17T23:51:14.128Z,99.90
2018-07-17T23:53:48.494Z,99.90
2018-07-17T23:56:22.819Z,99.90
2018-07-17T23:58:57.110Z,99.90
